createdAt,value
2023-01-20T00:00:54.370Z,99875.09
2023-01-20T00:03:58.270Z,99888.56
2023-01-20T00:07:02.554Z,99886.81
2023-01-20T00:10:07.973Z,99878.91
2023-01-20T00:13:11.014Z,99876.25
2023-01-20T00:16:14.313Z,99890.00
2023-01-20T00:19:17.567Z,99903.47
2023-01-20T00:22:34.203Z,99909.59
2023-01-20T00:25:37.249Z,99914.72
2023-01-20T00:28:40.442Z,99918.88
2023-01-20T00:31:44.492Z,99921.47
2023-01-20T00:34:47.272Z,99923.06
2023-01-20T00:37:50.443Z,99924.72
2023-01-20T00:40:57.539Z,99938.47
2023-01-20T00:44:01.304Z,99937.59
2023-01-20T00:47:05.110Z,99953.00
2023-01-20T00:50:11.391Z,99946.09
2023-01-20T00:53:14.290Z,99944.41
2023-01-20T00:56:20.720Z,99938.19
2023-01-20T00:59:23.489Z,99929.28
2023-01-20T01:02:26.789Z,99916.69
2023-01-20T01:05:29.770Z,99905.25
2023-01-20T01:08:35.563Z,99909.25
2023-01-20T01:11:38.677Z,99902.75
2023-01-20T01:14:42.467Z,99897.94
2023-01-20T01:17:45.612Z,99885.63
2023-01-20T01:20:48.691Z,99884.28
2023-01-20T01:23:53.307Z,99884.41
2023-01-20T01:26:56.088Z,99882.84
2023-01-20T01:29:58.947Z,99875.12
2023-01-20T01:33:01.752Z,99873.66
2023-01-20T01:36:06.533Z,99861.97
2023-01-20T01:39:09.636Z,99864.75
2023-01-20T01:42:19.592Z,99864.06
2023-01-20T01:45:26.192Z,99861.69
2023-01-20T01:48:39.540Z,99850.88
2023-01-20T01:51:58.432Z,99847.63
2023-01-20T01:55:03.069Z,99847.72
2023-01-20T01:58:13.830Z,99845.06
2023-01-20T02:01:18.430Z,99843.28
2023-01-20T02:04:24.721Z,99849.03
2023-01-20T02:07:28.815Z,99852.56
2023-01-20T02:10:32.420Z,99849.91
2023-01-20T02:13:36.823Z,99841.69
2023-01-20T02:16:59.133Z,99839.41
2023-01-20T02:20:05.438Z,99842.47
2023-01-20T02:23:38.453Z,99837.06
2023-01-20T02:27:23.917Z,99831.22
2023-01-20T02:30:51.820Z,99835.84
2023-01-20T02:34:03.495Z,99841.97
2023-01-20T02:37:14.655Z,99840.72
2023-01-20T02:40:25.645Z,99840.19
2023-01-20T02:43:48.496Z,99837.72
2023-01-20T02:47:04.092Z,99841.25
2023-01-20T02:50:14.063Z,99847.47
2023-01-20T02:53:20.445Z,99844.19
2023-01-20T02:56:28.352Z,99850.31
2023-01-20T02:59:37.321Z,99859.69
2023-01-20T03:02:42.933Z,99856.41
2023-01-20T03:05:52.156Z,99873.44
2023-01-20T03:08:56.643Z,99864.50
2023-01-20T03:12:05.578Z,99875.75
2023-01-20T03:15:10.070Z,99881.78
2023-01-20T03:18:13.108Z,99881.78
2023-01-20T03:21:19.345Z,99878.50
2023-01-20T03:24:27.848Z,99870.78
2023-01-20T03:27:30.722Z,99868.22
2023-01-20T03:30:34.269Z,99868.22
2023-01-20T03:33:37.031Z,99879.28
2023-01-20T03:36:42.068Z,99874.16
2023-01-20T03:39:45.149Z,99877.53
2023-01-20T03:43:00.146Z,99873.09
2023-01-20T03:46:14.745Z,99869.91
2023-01-20T03:49:24.223Z,99870.87
2023-01-20T03:52:46.502Z,99877.97
2023-01-20T03:56:14.565Z,99880.63
2023-01-20T03:59:20.502Z,99876.19
2023-01-20T04:02:35.423Z,99871.25
2023-01-20T04:05:41.923Z,99867.06
2023-01-20T04:08:57.186Z,99862.81
2023-01-20T04:12:00.189Z,99867.00
2023-01-20T04:15:03.135Z,99865.31
2023-01-20T04:18:25.743Z,99864.41
2023-01-20T04:21:37.028Z,99872.13
2023-01-20T04:25:00.147Z,99861.84
2023-01-20T04:28:03.091Z,99866.81
2023-01-20T04:31:18.102Z,99867.78
2023-01-20T04:34:28.452Z,99877.00
2023-01-20T04:37:33.525Z,99873.63
2023-01-20T04:40:36.430Z,99874.50
2023-01-20T04:43:44.186Z,99875.41
2023-01-20T04:46:47.528Z,99873.00
2023-01-20T04:49:51.059Z,99862.13
2023-01-20T04:52:59.359Z,99845.91
2023-01-20T04:56:04.119Z,99848.37
2023-01-20T04:59:08.404Z,99832.06
2023-01-20T05:02:13.043Z,99825.34
2023-01-20T05:05:18.044Z,99816.91
2023-01-20T05:08:23.864Z,99821.47
2023-01-20T05:11:33.348Z,99819.00
2023-01-20T05:14:37.956Z,99822.44
2023-01-20T05:17:41.587Z,99821.75
2023-01-20T05:20:46.316Z,99820.16
2023-01-20T05:23:50.506Z,99826.16
2023-01-20T05:26:53.795Z,99825.37
2023-01-20T05:29:56.425Z,99829.88
2023-01-20T05:32:59.470Z,99837.59
2023-01-20T05:36:07.676Z,99838.66
2023-01-20T05:39:11.898Z,99835.38
2023-01-20T05:42:17.593Z,99835.56
2023-01-20T05:45:34.411Z,99827.03
2023-01-20T05:48:41.283Z,99828.91
2023-01-20T05:51:45.258Z,99832.53
2023-01-20T05:54:49.774Z,99830.94
2023-01-20T05:57:52.886Z,99831.72
2023-01-20T06:00:55.815Z,99841.22
2023-01-20T06:03:58.727Z,99834.31
2023-01-20T06:07:01.754Z,99828.28
2023-01-20T06:10:09.027Z,99824.03
2023-01-20T06:13:18.407Z,99821.53
2023-01-20T06:16:23.291Z,99823.22
2023-01-20T06:19:32.354Z,99816.31
2023-01-20T06:22:41.423Z,99817.37
2023-01-20T06:25:45.624Z,99824.28
2023-01-20T06:28:49.527Z,99807.25
2023-01-20T06:31:53.753Z,99816.03
2023-01-20T06:35:00.984Z,99812.75
2023-01-20T06:38:14.427Z,99823.09
2023-01-20T06:41:25.256Z,99825.94
2023-01-20T06:44:33.412Z,99827.72
2023-01-20T06:47:38.184Z,99837.28
2023-01-20T06:50:43.478Z,99836.47
2023-01-20T06:53:48.537Z,99841.72
2023-01-20T06:56:53.371Z,99848.72
2023-01-20T06:59:59.353Z,99848.63
2023-01-20T07:03:04.781Z,99847.13
2023-01-20T07:06:14.352Z,99845.59
2023-01-20T07:09:18.473Z,99852.62
2023-01-20T07:12:28.101Z,99853.59
2023-01-20T07:15:34.790Z,99852.88
2023-01-20T07:18:42.678Z,99862.56
2023-01-20T07:21:50.233Z,99860.16
2023-01-20T07:24:53.867Z,99866.34
2023-01-20T07:27:59.334Z,99864.75
2023-01-20T07:31:11.951Z,99866.59
2023-01-20T07:34:17.732Z,99861.53
2023-01-20T07:37:21.820Z,99866.69
2023-01-20T07:40:25.586Z,99862.50
2023-01-20T07:43:29.023Z,99872.09
2023-01-20T07:46:35.437Z,99869.84
2023-01-20T07:49:39.109Z,99876.94
2023-01-20T07:52:44.354Z,99874.34
2023-01-20T07:55:48.607Z,99884.28
2023-01-20T07:59:01.340Z,99881.69
2023-01-20T08:02:06.485Z,99884.53
2023-01-20T08:05:16.502Z,99888.94
2023-01-20T08:08:19.295Z,99895.88
2023-01-20T08:11:23.855Z,99901.28
2023-01-20T08:14:27.585Z,99904.81
2023-01-20T08:17:36.272Z,99905.72
2023-01-20T08:20:41.767Z,99901.34
2023-01-20T08:23:50.859Z,99912.72
2023-01-20T08:26:53.522Z,99906.66
2023-01-20T08:29:57.844Z,99909.53
2023-01-20T08:33:08.408Z,99906.31
2023-01-20T08:36:31.316Z,99909.87
2023-01-20T08:39:36.470Z,99913.41
2023-01-20T08:42:42.881Z,99908.41
2023-01-20T08:45:48.174Z,99910.91
2023-01-20T08:48:53.045Z,99913.50
2023-01-20T08:52:10.730Z,99911.00
2023-01-20T08:55:17.424Z,99918.88
2023-01-20T08:58:27.634Z,99914.63
2023-01-20T09:01:38.346Z,99913.91
2023-01-20T09:04:42.531Z,99916.63
2023-01-20T09:07:47.253Z,99918.50
2023-01-20T09:11:09.665Z,99910.84
2023-01-20T09:14:25.679Z,99911.00
2023-01-20T09:17:29.027Z,99916.87
2023-01-20T09:20:32.478Z,99910.84
2023-01-20T09:23:42.500Z,99904.97
2023-01-20T09:26:52.381Z,99895.63
2023-01-20T09:30:09.614Z,99886.28
2023-01-20T09:33:15.646Z,99888.06
2023-01-20T09:36:18.616Z,99880.41
2023-01-20T09:39:41.115Z,99886.59
2023-01-20T09:43:34.064Z,99881.44
2023-01-20T09:46:40.141Z,99885.88
2023-01-20T09:50:09.039Z,99877.41
2023-01-20T09:53:46.769Z,99872.41
2023-01-20T09:56:55.511Z,99863.06
2023-01-20T10:00:11.793Z,99853.72
2023-01-20T10:03:47.329Z,99839.28
2023-01-20T10:06:59.911Z,99836.88
2023-01-20T10:10:26.603Z,99827.59
2023-01-20T10:13:41.088Z,99817.37
2023-01-20T10:16:54.470Z,99813.09
2023-01-20T10:20:04.581Z,99816.66
2023-01-20T10:23:15.455Z,99811.66
2023-01-20T10:26:39.311Z,99813.50
2023-01-20T10:29:48.017Z,99823.31
2023-01-20T10:33:01.470Z,99809.75
2023-01-20T10:36:15.859Z,99815.31
2023-01-20T10:39:35.367Z,99813.09
2023-01-20T10:42:40.523Z,99816.84
2023-01-20T10:45:59.021Z,99826.44
2023-01-20T10:49:37.201Z,99823.72
2023-01-20T10:53:02.380Z,99824.00
2023-01-20T10:56:25.901Z,99824.22
2023-01-20T10:59:35.382Z,99820.91
2023-01-20T11:02:50.530Z,99822.69
2023-01-20T11:05:54.306Z,99823.56
2023-01-20T11:09:19.666Z,99816.63
2023-01-20T11:12:27.618Z,99817.53
2023-01-20T11:15:37.379Z,99811.63
2023-01-20T11:18:40.111Z,99804.75
2023-01-20T11:21:47.285Z,99794.38
2023-01-20T11:24:56.043Z,99778.88
2023-01-20T11:28:18.121Z,99776.16
2023-01-20T11:31:33.077Z,99770.63
2023-01-20T11:34:37.169Z,99758.47
2023-01-20T11:37:45.301Z,99752.06
2023-01-20T11:40:57.412Z,99748.16
2023-01-20T11:44:01.576Z,99746.75
2023-01-20T11:47:25.082Z,99766.50
2023-01-20T11:50:36.727Z,99750.88
2023-01-20T11:53:39.913Z,99746.47
2023-01-20T11:56:45.771Z,99743.75
2023-01-20T11:59:58.201Z,99744.25
2023-01-20T12:03:20.314Z,99752.00
2023-01-20T12:06:44.108Z,99752.59
2023-01-20T12:09:53.521Z,99748.97
2023-01-20T12:13:18.568Z,99744.38
2023-01-20T12:16:32.240Z,99750.84
2023-01-20T12:19:55.682Z,99757.53
2023-01-20T12:23:26.109Z,99760.13
2023-01-20T12:26:36.597Z,99755.78
2023-01-20T12:29:47.280Z,99756.50
2023-01-20T12:32:50.946Z,99751.97
2023-01-20T12:36:25.301Z,99755.50
2023-01-20T12:39:51.913Z,99758.31
2023-01-20T12:43:19.618Z,99752.28
2023-01-20T12:46:23.671Z,99760.34
2023-01-20T12:49:36.636Z,99760.81
2023-01-20T12:52:53.372Z,99757.50
2023-01-20T12:56:34.629Z,99764.50
2023-01-20T13:00:17.999Z,99755.75
2023-01-20T13:03:56.471Z,99763.38
2023-01-20T13:07:31.330Z,99768.38
2023-01-20T13:10:51.206Z,99774.03
2023-01-20T13:14:12.023Z,99780.06
2023-01-20T13:17:40.248Z,99783.22
2023-01-20T13:20:50.728Z,99783.00
2023-01-20T13:24:02.617Z,99790.00
2023-01-20T13:27:33.223Z,99794.81
2023-01-20T13:30:48.385Z,99794.03
2023-01-20T13:33:56.481Z,99796.44
2023-01-20T13:37:07.425Z,99788.47
2023-01-20T13:40:50.514Z,99791.94
2023-01-20T13:44:02.208Z,99787.22
2023-01-20T13:47:11.068Z,99796.50
2023-01-20T13:50:33.905Z,99795.19
2023-01-20T13:53:37.848Z,99793.84
2023-01-20T13:56:50.215Z,99793.66
2023-01-20T13:59:57.553Z,99807.97
2023-01-20T14:03:14.640Z,99810.06
2023-01-20T14:06:24.130Z,99814.00
2023-01-20T14:09:27.886Z,99813.56
2023-01-20T14:12:43.511Z,99817.66
2023-01-20T14:15:58.406Z,99823.53
2023-01-20T14:19:33.245Z,99823.25
2023-01-20T14:22:38.494Z,99824.69
2023-01-20T14:26:00.322Z,99826.75
2023-01-20T14:29:14.183Z,99820.28
2023-01-20T14:32:34.376Z,99827.38
2023-01-20T14:35:51.776Z,99828.72
2023-01-20T14:38:58.934Z,99835.38
2023-01-20T14:42:14.213Z,99837.59
2023-01-20T14:45:32.522Z,99836.38
2023-01-20T14:48:59.545Z,99836.00
2023-01-20T14:52:13.356Z,99844.03
2023-01-20T14:55:47.212Z,99846.59
2023-01-20T14:59:00.710Z,99844.75
2023-01-20T15:02:15.732Z,99844.66
2023-01-20T15:05:28.788Z,99851.38
2023-01-20T15:08:39.335Z,99860.69
2023-01-20T15:11:51.320Z,99862.91
2023-01-20T15:15:21.950Z,99874.75
2023-01-20T15:18:27.312Z,99873.00
2023-01-20T15:21:38.440Z,99876.97
2023-01-20T15:24:47.626Z,99870.06
2023-01-20T15:27:56.617Z,99877.59
2023-01-20T15:31:13.635Z,99876.59
2023-01-20T15:34:32.401Z,99887.78
2023-01-20T15:37:45.248Z,99885.19
2023-01-20T15:40:56.483Z,99886.41
2023-01-20T15:44:18.364Z,99893.31
2023-01-20T15:47:35.868Z,99892.34
2023-01-20T15:50:42.172Z,99891.38
2023-01-20T15:53:47.385Z,99897.13
2023-01-20T15:56:50.559Z,99898.69
2023-01-20T16:00:07.265Z,99908.97
2023-01-20T16:03:16.389Z,99916.50
2023-01-20T16:06:41.185Z,99919.06
2023-01-20T16:09:53.251Z,99922.59
2023-01-20T16:13:16.456Z,99914.03
2023-01-20T16:16:34.264Z,99919.06
2023-01-20T16:19:54.223Z,99913.81
2023-01-20T16:23:19.205Z,99900.28
2023-01-20T16:26:36.240Z,99901.19
2023-01-20T16:29:47.216Z,99901.00
2023-01-20T16:32:52.213Z,99892.50
2023-01-20T16:35:57.267Z,99888.16
2023-01-20T16:39:09.164Z,99891.31
2023-01-20T16:42:23.212Z,99898.31
2023-01-20T16:45:34.798Z,99906.72
2023-01-20T16:48:46.232Z,99904.63
2023-01-20T16:52:02.239Z,99903.97
2023-01-20T16:55:22.389Z,99900.38
2023-01-20T16:58:27.517Z,99904.72
2023-01-20T17:01:33.274Z,99907.31
2023-01-20T17:04:39.001Z,99907.13
2023-01-20T17:07:58.281Z,99899.31
2023-01-20T17:11:05.254Z,99895.97
2023-01-20T17:14:13.298Z,99894.87
2023-01-20T17:17:18.557Z,99912.16
2023-01-20T17:20:35.549Z,99907.31
2023-01-20T17:23:46.734Z,99909.78
2023-01-20T17:26:58.194Z,99905.94
2023-01-20T17:30:09.330Z,99892.91
2023-01-20T17:33:17.373Z,99898.25
2023-01-20T17:36:38.188Z,99903.09
2023-01-20T17:39:47.960Z,99900.63
2023-01-20T17:42:59.945Z,99912.66
2023-01-20T17:46:20.703Z,99913.34
2023-01-20T17:49:38.170Z,99906.53
2023-01-20T17:52:55.990Z,99911.69
2023-01-20T17:56:11.882Z,99904.78
2023-01-20T17:59:27.518Z,99904.06
2023-01-20T18:02:32.387Z,99905.06
2023-01-20T18:05:44.204Z,99908.50
2023-01-20T18:09:09.219Z,99917.97
2023-01-20T18:12:16.499Z,99917.19
2023-01-20T18:15:21.489Z,99913.03
2023-01-20T18:18:32.169Z,99918.09
2023-01-20T18:21:39.403Z,99917.37
2023-01-20T18:24:52.316Z,99915.59
2023-01-20T18:28:03.303Z,99912.25
2023-01-20T18:31:19.260Z,99901.78
2023-01-20T18:34:28.322Z,99902.87
2023-01-20T18:37:34.432Z,99896.84
2023-01-20T18:40:48.637Z,99899.50
2023-01-20T18:44:06.577Z,99893.72
2023-01-20T18:47:24.216Z,99890.34
2023-01-20T18:50:29.315Z,99886.87
2023-01-20T18:53:38.801Z,99892.91
2023-01-20T18:56:50.811Z,99886.00
2023-01-20T19:00:06.296Z,99883.53
2023-01-20T19:03:15.371Z,99880.97
2023-01-20T19:06:23.449Z,99871.75
2023-01-20T19:09:28.282Z,99874.25
2023-01-20T19:12:33.339Z,99883.72
2023-01-20T19:15:38.286Z,99892.41
2023-01-20T19:18:59.551Z,99898.44
2023-01-20T19:22:09.946Z,99892.50
2023-01-20T19:25:18.378Z,99902.84
2023-01-20T19:28:25.313Z,99898.59
2023-01-20T19:31:34.350Z,99892.50
2023-01-20T19:34:40.323Z,99892.59
2023-01-20T19:37:54.761Z,99895.25
2023-01-20T19:41:17.313Z,99900.38
2023-01-20T19:44:21.692Z,99900.47
2023-01-20T19:47:31.573Z,99909.87
2023-01-20T19:50:42.278Z,99904.53
2023-01-20T19:53:57.186Z,99909.69
2023-01-20T19:57:05.311Z,99907.91
2023-01-20T20:00:12.443Z,99906.91
2023-01-20T20:03:21.762Z,99915.88
2023-01-20T20:06:35.949Z,99926.84
2023-01-20T20:09:41.082Z,99926.06
2023-01-20T20:12:47.333Z,99927.94
2023-01-20T20:16:02.091Z,99931.47
2023-01-20T20:19:18.910Z,99925.37
2023-01-20T20:22:26.337Z,99938.28
2023-01-20T20:25:33.708Z,99938.28
2023-01-20T20:28:53.185Z,99937.50
2023-01-20T20:32:02.438Z,99940.25
2023-01-20T20:35:17.273Z,99941.16
2023-01-20T20:38:21.797Z,99942.81
2023-01-20T20:41:32.068Z,99942.03
2023-01-20T20:44:42.312Z,99944.69
2023-01-20T20:47:49.334Z,99944.69
2023-01-20T20:51:09.462Z,99944.78
2023-01-20T20:54:17.347Z,99948.34
2023-01-20T20:57:21.182Z,99946.75
2023-01-20T21:00:30.496Z,99949.31
2023-01-20T21:03:36.606Z,99952.59
2023-01-20T21:06:48.405Z,99963.75
2023-01-20T21:09:54.538Z,99961.56
2023-01-20T21:13:03.226Z,99958.09
2023-01-20T21:16:15.913Z,99966.50
2023-01-20T21:19:33.264Z,99968.88
2023-01-20T21:22:41.594Z,99968.19
2023-01-20T21:25:51.432Z,99967.41
2023-01-20T21:29:06.469Z,99972.53
2023-01-20T21:32:15.201Z,99984.50
2023-01-20T21:35:27.406Z,99991.41
2023-01-20T21:38:32.981Z,99996.53
2023-01-20T21:41:48.172Z,100007.69
2023-01-20T21:44:53.418Z,100009.38
2023-01-20T21:48:16.903Z,100010.19
2023-01-20T21:51:39.152Z,100006.81
2023-01-20T21:54:45.510Z,100008.59
2023-01-20T21:57:51.552Z,100011.16
2023-01-20T22:00:56.805Z,100009.47
2023-01-20T22:04:07.184Z,100011.25
2023-01-20T22:07:11.310Z,100018.06
2023-01-20T22:10:21.374Z,100019.66
2023-01-20T22:13:29.246Z,100014.72
2023-01-20T22:16:34.332Z,100020.63
2023-01-20T22:19:38.261Z,100020.75
2023-01-20T22:22:44.954Z,100019.06
2023-01-20T22:25:56.652Z,100014.81
2023-01-20T22:29:12.613Z,100013.91
2023-01-20T22:32:18.909Z,100019.75
2023-01-20T22:35:27.363Z,100012.75
2023-01-20T22:38:31.004Z,100030.13
2023-01-20T22:41:37.474Z,100030.03
2023-01-20T22:44:42.146Z,100036.06
2023-01-20T22:47:50.138Z,100027.28
2023-01-20T22:51:10.604Z,100034.28
2023-01-20T22:54:15.317Z,100025.78
2023-01-20T22:57:18.521Z,100025.69
2023-01-20T23:00:25.139Z,100019.06
2023-01-20T23:03:28.848Z,100018.88
2023-01-20T23:06:40.224Z,100025.69
2023-01-20T23:09:46.907Z,100022.22
2023-01-20T23:12:55.147Z,100033.37
2023-01-20T23:15:59.629Z,100031.62
2023-01-20T23:19:03.694Z,100043.66
2023-01-20T23:22:07.732Z,100038.44
2023-01-20T23:25:10.820Z,100040.31
2023-01-20T23:28:17.062Z,100046.12
2023-01-20T23:31:28.538Z,100062.53
2023-01-20T23:34:32.546Z,100050.78
2023-01-20T23:37:39.287Z,100066.09
2023-01-20T23:40:43.455Z,100054.13
2023-01-20T23:43:48.041Z,100050.69
2023-01-20T23:46:51.106Z,100055.03
2023-01-20T23:49:53.986Z,100042.78
2023-01-20T23:52:58.270Z,100040.22
2023-01-20T23:56:10.100Z,100037.63
2023-01-20T23:59:13.280Z,100034.97
